createdAt,value
2023-04-20T00:02:25.200Z,42.79
2023-04-20T00:04:53.029Z,42.85
2023-04-20T00:07:19.904Z,43.04
2023-04-20T00:09:46.725Z,43.08
2023-04-20T00:12:13.584Z,43.43
2023-04-20T00:14:40.455Z,43.61
2023-04-20T00:17:08.010Z,43.74
2023-04-20T00:19:35.114Z,43.63
2023-04-20T00:22:01.959Z,43.85
2023-04-20T00:24:29.212Z,44.03
2023-04-20T00:26:56.513Z,44.13
2023-04-20T00:29:23.509Z,44.32
2023-04-20T00:31:50.472Z,44.52
2023-04-20T00:34:17.367Z,44.72
2023-04-20T00:36:44.464Z,44.92
2023-04-20T00:39:11.472Z,44.93
2023-04-20T00:41:38.356Z,45.40
2023-04-20T00:44:08.189Z,45.59
2023-04-20T00:46:35.348Z,46.28
2023-04-20T00:49:05.850Z,45.97
2023-04-20T00:51:34.440Z,46.14
2023-04-20T00:54:01.869Z,46.31
2023-04-20T00:56:28.812Z,46.25
2023-04-20T00:58:56.322Z,46.97
2023-04-20T01:01:23.574Z,47.25
2023-04-20T01:03:50.988Z,47.03
2023-04-20T01:06:18.181Z,47.60
2023-04-20T01:08:52.033Z,48.11
2023-04-20T01:11:19.268Z,48.25
2023-04-20T01:13:46.177Z,48.88
2023-04-20T01:16:13.771Z,49.05
2023-04-20T01:18:50.273Z,49.32
2023-04-20T01:21:22.236Z,49.41
2023-04-20T01:23:50.420Z,49.93
2023-04-20T01:26:21.341Z,50.22
2023-04-20T01:28:50.532Z,50.42
2023-04-20T01:31:17.957Z,50.39
2023-04-20T01:33:44.806Z,50.33
2023-04-20T01:36:12.563Z,50.18
2023-04-20T01:38:39.523Z,50.56
2023-04-20T01:41:09.817Z,50.63
2023-04-20T01:43:39.663Z,51.30
2023-04-20T01:46:07.362Z,50.81
2023-04-20T01:48:34.653Z,50.85
2023-04-20T01:51:01.552Z,51.64
2023-04-20T01:53:28.508Z,51.07
2023-04-20T01:55:55.566Z,51.81
2023-04-20T01:58:23.090Z,52.60
2023-04-20T02:00:50.211Z,52.64
2023-04-20T02:03:17.647Z,52.74
2023-04-20T02:05:44.656Z,52.74
2023-04-20T02:08:11.504Z,53.09
2023-04-20T02:10:39.652Z,54.27
2023-04-20T02:13:06.597Z,53.79
2023-04-20T02:15:33.506Z,54.76
2023-04-20T02:18:00.510Z,55.12
2023-04-20T02:20:28.477Z,55.56
2023-04-20T02:22:55.421Z,56.15
2023-04-20T02:25:22.372Z,56.24
2023-04-20T02:27:49.648Z,57.85
2023-04-20T02:30:16.716Z,58.59
2023-04-20T02:32:43.699Z,58.22
2023-04-20T02:35:10.700Z,60.10
2023-04-20T02:37:37.504Z,60.16
2023-04-20T02:40:07.014Z,60.39
2023-04-20T02:42:34.615Z,61.63
2023-04-20T02:45:04.493Z,61.89
2023-04-20T02:47:31.551Z,63.08
2023-04-20T02:49:58.799Z,62.83
2023-04-20T02:52:25.945Z,64.48
2023-04-20T02:54:55.783Z,62.96
2023-04-20T02:57:22.933Z,63.10
2023-04-20T02:59:49.892Z,64.29
2023-04-20T03:02:25.175Z,64.75
2023-04-20T03:04:54.451Z,65.08
2023-04-20T03:07:21.945Z,65.32
2023-04-20T03:09:49.596Z,65.38
2023-04-20T03:12:27.288Z,66.27
2023-04-20T03:15:25.883Z,66.09
2023-04-20T03:18:15.336Z,66.30
2023-04-20T03:20:42.127Z,66.82
2023-04-20T03:23:08.964Z,67.65
2023-04-20T03:25:36.275Z,67.99
2023-04-20T03:28:16.388Z,67.80
2023-04-20T03:30:43.372Z,68.39
2023-04-20T03:33:14.806Z,68.35
2023-04-20T03:35:43.153Z,67.71
2023-04-20T03:38:10.501Z,69.36
2023-04-20T03:40:37.325Z,68.80
2023-04-20T03:43:04.979Z,69.30
2023-04-20T03:45:31.758Z,70.09
2023-04-20T03:47:58.778Z,70.61
2023-04-20T03:50:26.678Z,71.27
2023-04-20T03:52:53.544Z,71.67
2023-04-20T03:55:20.969Z,71.25
2023-04-20T03:57:54.972Z,73.34
2023-04-20T04:00:22.492Z,73.38
2023-04-20T04:02:49.426Z,73.58
2023-04-20T04:05:25.986Z,73.65
2023-04-20T04:07:53.299Z,73.85
2023-04-20T04:10:20.284Z,73.43
2023-04-20T04:12:47.597Z,73.71
2023-04-20T04:15:14.827Z,73.61
2023-04-20T04:17:49.780Z,73.63
2023-04-20T04:20:16.978Z,73.79
2023-04-20T04:22:44.025Z,73.52
2023-04-20T04:25:28.255Z,73.08
2023-04-20T04:27:55.330Z,73.25
2023-04-20T04:30:24.128Z,73.70
2023-04-20T04:32:51.181Z,73.96
2023-04-20T04:35:18.309Z,73.67
2023-04-20T04:37:46.183Z,73.31
2023-04-20T04:40:13.191Z,73.61
2023-04-20T04:42:40.494Z,74.13
2023-04-20T04:45:10.361Z,73.50
2023-04-20T04:47:43.881Z,74.21
2023-04-20T04:50:11.541Z,74.21
2023-04-20T04:52:38.400Z,74.25
2023-04-20T04:55:08.525Z,73.99
2023-04-20T04:57:36.255Z,73.80
2023-04-20T05:00:06.952Z,74.38
2023-04-20T05:02:34.081Z,74.71
2023-04-20T05:05:01.307Z,75.53
2023-04-20T05:07:28.195Z,76.16
2023-04-20T05:09:55.154Z,76.93
2023-04-20T05:12:21.995Z,76.78
2023-04-20T05:14:48.825Z,76.09
2023-04-20T05:17:15.588Z,76.65
2023-04-20T05:19:42.366Z,76.10
2023-04-20T05:22:09.149Z,76.06
2023-04-20T05:24:35.965Z,76.17
2023-04-20T05:27:04.085Z,76.72
2023-04-20T05:29:31.215Z,76.32
2023-04-20T05:31:58.175Z,76.67
2023-04-20T05:34:24.996Z,77.18
2023-04-20T05:36:52.905Z,77.37
2023-04-20T05:39:19.980Z,77.04
2023-04-20T05:41:47.862Z,77.73
2023-04-20T05:44:14.836Z,77.95
2023-04-20T05:46:41.742Z,78.25
2023-04-20T05:49:08.632Z,78.50
2023-04-20T05:51:35.490Z,78.36
2023-04-20T05:54:03.669Z,78.34
2023-04-20T05:56:30.672Z,78.12
2023-04-20T05:58:59.239Z,78.32
2023-04-20T06:01:26.574Z,77.80
2023-04-20T06:03:53.530Z,77.75
2023-04-20T06:06:20.581Z,77.08
2023-04-20T06:08:47.377Z,76.67
2023-04-20T06:11:14.196Z,75.77
2023-04-20T06:13:40.987Z,75.38
2023-04-20T06:16:09.779Z,75.48
2023-04-20T06:18:37.698Z,75.12
2023-04-20T06:21:04.719Z,75.24
2023-04-20T06:23:31.558Z,75.40
2023-04-20T06:25:58.408Z,75.39
2023-04-20T06:28:25.342Z,76.16
2023-04-20T06:30:52.177Z,76.40
2023-04-20T06:33:19.188Z,76.54
2023-04-20T06:35:46.124Z,77.06
2023-04-20T06:38:13.144Z,76.61
2023-04-20T06:40:40.020Z,76.33
2023-04-20T06:43:06.893Z,76.41
2023-04-20T06:45:34.280Z,76.62
2023-04-20T06:48:01.779Z,76.29
2023-04-20T06:50:28.846Z,76.13
2023-04-20T06:52:55.928Z,75.65
2023-04-20T06:55:23.011Z,75.56
2023-04-20T06:57:50.233Z,76.00
2023-04-20T07:00:17.726Z,76.32
2023-04-20T07:02:49.228Z,76.22
2023-04-20T07:05:17.437Z,76.63
2023-04-20T07:07:45.449Z,76.80
2023-04-20T07:10:14.539Z,76.59
2023-04-20T07:12:43.776Z,76.92
2023-04-20T07:15:12.055Z,77.05
2023-04-20T07:17:40.498Z,77.73
2023-04-20T07:20:08.903Z,77.87
2023-04-20T07:22:37.538Z,77.98
2023-04-20T07:25:08.891Z,78.70
2023-04-20T07:27:40.954Z,78.85
2023-04-20T07:30:10.561Z,78.98
2023-04-20T07:32:39.802Z,77.30
2023-04-20T07:35:07.635Z,74.21
2023-04-20T07:37:35.020Z,72.50
2023-04-20T07:40:02.438Z,71.47
2023-04-20T07:42:29.850Z,70.22
2023-04-20T07:44:56.758Z,70.03
2023-04-20T07:47:23.664Z,70.35
2023-04-20T07:49:53.570Z,70.31
2023-04-20T07:52:20.514Z,70.14
2023-04-20T07:54:47.756Z,68.59
2023-04-20T07:57:15.184Z,68.74
2023-04-20T07:59:42.192Z,68.56
2023-04-20T08:02:09.233Z,68.70
2023-04-20T08:04:40.076Z,68.10
2023-04-20T08:07:07.250Z,68.12
2023-04-20T08:09:34.050Z,69.23
2023-04-20T08:12:01.899Z,70.39
2023-04-20T08:14:28.889Z,71.15
2023-04-20T08:16:56.063Z,71.92
2023-04-20T08:19:23.369Z,72.31
2023-04-20T08:21:51.554Z,72.74
2023-04-20T08:24:19.240Z,74.14
2023-04-20T08:26:46.388Z,73.55
2023-04-20T08:29:13.284Z,74.32
2023-04-20T08:31:40.251Z,73.80
2023-04-20T08:34:07.163Z,71.89
2023-04-20T08:36:34.044Z,71.44
2023-04-20T08:39:14.088Z,69.35
2023-04-20T08:41:41.246Z,70.30
2023-04-20T08:44:08.647Z,71.80
2023-04-20T08:46:38.483Z,72.28
2023-04-20T08:49:05.424Z,73.88
2023-04-20T08:51:32.664Z,74.60
2023-04-20T08:54:07.220Z,73.36
2023-04-20T08:56:40.829Z,73.16
2023-04-20T08:59:10.463Z,72.37
2023-04-20T09:01:39.571Z,73.20
2023-04-20T09:04:22.798Z,73.23
2023-04-20T09:06:53.056Z,72.79
2023-04-20T09:09:22.506Z,73.15
2023-04-20T09:12:10.307Z,73.59
2023-04-20T09:14:45.188Z,75.08
2023-04-20T09:17:14.703Z,75.40
2023-04-20T09:19:45.127Z,76.06
2023-04-20T09:22:12.140Z,76.70
2023-04-20T09:24:41.375Z,76.33
2023-04-20T09:27:19.281Z,77.13
2023-04-20T09:30:01.429Z,77.54
2023-04-20T09:32:29.092Z,78.14
2023-04-20T09:34:57.666Z,79.62
2023-04-20T09:37:25.605Z,80.24
2023-04-20T09:39:59.953Z,81.38
2023-04-20T09:42:29.000Z,81.97
2023-04-20T09:44:57.615Z,83.02
2023-04-20T09:47:26.664Z,83.74
2023-04-20T09:49:54.868Z,83.80
2023-04-20T09:52:24.176Z,84.16
2023-04-20T09:54:51.873Z,84.03
2023-04-20T09:57:20.864Z,84.48
2023-04-20T09:59:47.810Z,84.33
2023-04-20T10:02:15.420Z,83.93
2023-04-20T10:04:59.249Z,83.62
2023-04-20T10:07:28.972Z,84.12
2023-04-20T10:10:14.564Z,84.68
2023-04-20T10:12:56.944Z,84.47
2023-04-20T10:15:36.012Z,85.42
2023-04-20T10:18:03.024Z,86.56
2023-04-20T10:20:30.018Z,86.86
2023-04-20T10:23:10.443Z,85.12
2023-04-20T10:25:37.892Z,85.14
2023-04-20T10:28:09.720Z,83.03
2023-04-20T10:30:38.112Z,82.14
2023-04-20T10:33:11.350Z,79.73
2023-04-20T10:35:55.326Z,79.12
2023-04-20T10:38:34.382Z,78.16
2023-04-20T10:41:12.655Z,77.63
2023-04-20T10:43:43.233Z,76.28
2023-04-20T10:46:25.778Z,75.84
2023-04-20T10:48:58.888Z,73.77
2023-04-20T10:51:26.157Z,72.14
2023-04-20T10:54:08.805Z,70.32
2023-04-20T10:56:53.822Z,69.60
2023-04-20T10:59:23.832Z,68.57
2023-04-20T11:01:52.354Z,68.03
2023-04-20T11:04:29.699Z,65.79
2023-04-20T11:07:07.224Z,62.64
2023-04-20T11:09:35.686Z,63.40
2023-04-20T11:12:05.029Z,63.79
2023-04-20T11:14:56.036Z,65.46
2023-04-20T11:17:38.315Z,66.32
2023-04-20T11:20:15.171Z,65.20
2023-04-20T11:22:44.101Z,66.31
2023-04-20T11:25:12.478Z,67.46
2023-04-20T11:27:40.866Z,68.90
2023-04-20T11:30:09.903Z,69.02
2023-04-20T11:32:38.246Z,69.20
2023-04-20T11:35:10.788Z,71.23
2023-04-20T11:37:51.092Z,70.96
2023-04-20T11:40:18.155Z,71.70
2023-04-20T11:42:46.325Z,72.28
2023-04-20T11:45:13.287Z,73.16
2023-04-20T11:47:42.715Z,76.60
2023-04-20T11:50:11.609Z,85.44
2023-04-20T11:52:38.632Z,94.11
2023-04-20T11:55:06.381Z,97.14
2023-04-20T11:57:34.556Z,100.00
2023-04-20T12:00:01.437Z,100.00
2023-04-20T12:02:28.516Z,100.00
2023-04-20T12:04:55.760Z,99.97
2023-04-20T12:07:23.172Z,98.11
2023-04-20T12:09:50.020Z,97.80
2023-04-20T12:12:16.782Z,97.92
2023-04-20T12:14:43.591Z,100.00
2023-04-20T12:17:11.101Z,100.00
2023-04-20T12:19:38.063Z,100.00
2023-04-20T12:22:04.926Z,100.00
2023-04-20T12:24:32.094Z,100.00
2023-04-20T12:26:59.487Z,100.00
2023-04-20T12:29:26.447Z,100.00
2023-04-20T12:31:53.845Z,100.00
2023-04-20T12:34:21.393Z,100.00
2023-04-20T12:36:48.385Z,100.00
2023-04-20T12:39:16.153Z,100.00
2023-04-20T12:41:42.959Z,100.00
2023-04-20T12:44:11.549Z,100.00
2023-04-20T12:46:38.638Z,100.00
2023-04-20T12:49:05.562Z,100.00
2023-04-20T12:51:32.467Z,96.29
2023-04-20T12:53:59.310Z,96.59
2023-04-20T12:56:26.268Z,92.47
2023-04-20T12:58:53.065Z,97.58
2023-04-20T13:01:19.966Z,97.00
2023-04-20T13:03:47.092Z,95.39
2023-04-20T13:06:14.664Z,89.43
2023-04-20T13:08:41.571Z,88.59
2023-04-20T13:11:12.102Z,90.91
2023-04-20T13:13:39.127Z,87.41
2023-04-20T13:16:06.352Z,86.01
2023-04-20T13:18:34.175Z,84.50
2023-04-20T13:21:01.347Z,86.20
2023-04-20T13:23:28.332Z,83.84
2023-04-20T13:25:56.832Z,81.68
2023-04-20T13:28:25.852Z,76.82
2023-04-20T13:30:55.485Z,74.78
2023-04-20T13:33:22.362Z,73.73
2023-04-20T13:35:49.180Z,74.21
2023-04-20T13:38:16.112Z,74.11
2023-04-20T13:40:44.495Z,74.24
2023-04-20T13:43:12.607Z,75.76
2023-04-20T13:45:39.863Z,76.83
2023-04-20T13:48:07.194Z,75.67
2023-04-20T13:50:34.165Z,76.78
2023-04-20T13:53:03.265Z,75.29
2023-04-20T13:55:31.314Z,74.39
2023-04-20T13:57:58.138Z,73.93
2023-04-20T14:00:26.103Z,71.51
2023-04-20T14:02:53.203Z,70.06
2023-04-20T14:05:20.330Z,69.66
2023-04-20T14:07:47.171Z,68.52
2023-04-20T14:10:14.052Z,66.60
2023-04-20T14:12:40.944Z,68.08
2023-04-20T14:15:08.459Z,68.82
2023-04-20T14:17:35.485Z,68.75
2023-04-20T14:20:02.498Z,66.07
2023-04-20T14:22:34.514Z,65.76
2023-04-20T14:25:02.110Z,65.48
2023-04-20T14:27:28.909Z,64.50
2023-04-20T14:29:56.284Z,64.63
2023-04-20T14:32:23.285Z,66.05
2023-04-20T14:34:50.541Z,64.98
2023-04-20T14:37:17.759Z,66.45
2023-04-20T14:39:44.615Z,65.10
2023-04-20T14:42:12.511Z,66.42
2023-04-20T14:44:39.388Z,64.98
2023-04-20T14:47:06.207Z,64.17
2023-04-20T14:49:33.053Z,64.50
2023-04-20T14:51:59.844Z,65.37
2023-04-20T14:54:26.714Z,64.22
2023-04-20T14:56:53.540Z,64.79
2023-04-20T14:59:20.459Z,64.72
2023-04-20T15:01:59.131Z,64.84
2023-04-20T15:04:29.361Z,65.34
2023-04-20T15:06:56.413Z,64.58
2023-04-20T15:09:23.210Z,63.35
2023-04-20T15:11:50.056Z,62.79
2023-04-20T15:14:17.211Z,62.63
2023-04-20T15:16:44.309Z,61.78
2023-04-20T15:19:11.105Z,61.26
2023-04-20T15:21:37.951Z,62.06
2023-04-20T15:24:05.361Z,61.45
2023-04-20T15:26:35.466Z,61.74
2023-04-20T15:29:02.338Z,62.06
2023-04-20T15:31:29.278Z,62.57
2023-04-20T15:34:00.295Z,62.32
2023-04-20T15:36:27.613Z,62.72
2023-04-20T15:38:57.419Z,63.12
2023-04-20T15:41:24.782Z,62.28
2023-04-20T15:43:51.710Z,60.90
2023-04-20T15:46:18.847Z,58.40
2023-04-20T15:48:45.893Z,59.26
2023-04-20T15:51:12.740Z,56.54
2023-04-20T15:53:39.527Z,53.57
2023-04-20T15:56:06.743Z,52.97
2023-04-20T15:58:33.589Z,52.64
2023-04-20T16:01:00.422Z,54.43
2023-04-20T16:03:27.358Z,54.57
2023-04-20T16:05:54.394Z,52.94
2023-04-20T16:08:21.289Z,51.52
2023-04-20T16:10:48.404Z,51.02
2023-04-20T16:13:15.421Z,50.42
2023-04-20T16:15:42.310Z,48.94
2023-04-20T16:18:09.161Z,49.11
2023-04-20T16:20:36.065Z,48.55
2023-04-20T16:23:02.938Z,50.47
2023-04-20T16:25:29.858Z,50.16
2023-04-20T16:27:56.712Z,48.38
2023-04-20T16:30:23.551Z,46.89
2023-04-20T16:32:50.466Z,49.24
2023-04-20T16:35:17.522Z,50.98
2023-04-20T16:37:45.318Z,52.48
2023-04-20T16:40:12.609Z,52.99
2023-04-20T16:42:39.450Z,54.92
2023-04-20T16:45:07.367Z,55.95
2023-04-20T16:47:34.263Z,57.36
2023-04-20T16:50:01.139Z,57.49
2023-04-20T16:52:27.947Z,56.92
2023-04-20T16:54:54.797Z,56.59
2023-04-20T16:57:21.589Z,55.62
2023-04-20T16:59:48.355Z,52.79
2023-04-20T17:02:15.474Z,52.89
2023-04-20T17:04:42.370Z,53.81
2023-04-20T17:07:09.413Z,53.79
2023-04-20T17:09:36.599Z,53.72
2023-04-20T17:12:03.660Z,54.35
2023-04-20T17:14:32.245Z,54.81
2023-04-20T17:16:59.155Z,55.07
2023-04-20T17:19:26.065Z,55.75
2023-04-20T17:21:53.028Z,57.04
2023-04-20T17:24:20.000Z,58.61
2023-04-20T17:26:47.040Z,58.98
2023-04-20T17:29:13.848Z,60.22
2023-04-20T17:31:40.763Z,60.87
2023-04-20T17:34:07.770Z,61.58
2023-04-20T17:36:34.875Z,62.49
2023-04-20T17:39:01.902Z,62.88
2023-04-20T17:41:28.776Z,62.80
2023-04-20T17:43:55.762Z,63.35
2023-04-20T17:46:23.452Z,63.76
2023-04-20T17:48:50.278Z,63.91
2023-04-20T17:51:17.149Z,63.80
2023-04-20T17:53:44.050Z,64.50
2023-04-20T17:56:11.794Z,64.94
2023-04-20T17:58:38.646Z,65.16
2023-04-20T18:01:05.602Z,64.22
2023-04-20T18:03:32.656Z,64.59
2023-04-20T18:06:00.622Z,66.10
2023-04-20T18:08:28.179Z,67.53
2023-04-20T18:10:55.973Z,72.35
2023-04-20T18:13:22.843Z,85.94
2023-04-20T18:15:49.763Z,89.43
2023-04-20T18:18:21.497Z,88.73
2023-04-20T18:20:48.978Z,91.89
2023-04-20T18:23:15.830Z,92.71
2023-04-20T18:25:42.976Z,91.53
2023-04-20T18:28:10.935Z,89.61
2023-04-20T18:30:37.765Z,90.66
2023-04-20T18:33:04.668Z,89.71
2023-04-20T18:35:31.499Z,89.19
2023-04-20T18:37:58.508Z,89.28
2023-04-20T18:40:25.447Z,88.69
2023-04-20T18:42:52.304Z,88.46
2023-04-20T18:45:21.259Z,87.65
2023-04-20T18:47:48.182Z,87.93
2023-04-20T18:50:15.664Z,87.80
2023-04-20T18:52:42.580Z,88.04
2023-04-20T18:55:09.907Z,87.55
2023-04-20T18:57:36.828Z,87.52
2023-04-20T19:00:08.173Z,87.36
2023-04-20T19:02:36.020Z,87.53
2023-04-20T19:05:03.747Z,87.96
2023-04-20T19:07:30.602Z,87.08
2023-04-20T19:09:57.431Z,86.98
2023-04-20T19:12:24.290Z,86.74
2023-04-20T19:14:51.224Z,86.68
2023-04-20T19:17:18.135Z,84.07
2023-04-20T19:19:44.996Z,82.69
2023-04-20T19:22:11.804Z,82.18
2023-04-20T19:24:38.589Z,82.14
2023-04-20T19:27:05.390Z,82.13
2023-04-20T19:29:32.902Z,81.91
2023-04-20T19:31:59.847Z,82.60
2023-04-20T19:34:27.126Z,82.87
2023-04-20T19:36:54.236Z,83.19
2023-04-20T19:39:21.082Z,84.07
2023-04-20T19:41:48.036Z,84.33
2023-04-20T19:44:14.948Z,84.72
2023-04-20T19:46:43.480Z,85.28
2023-04-20T19:49:10.338Z,86.04
2023-04-20T19:51:37.312Z,85.59
2023-04-20T19:54:05.265Z,86.02
2023-04-20T19:56:33.630Z,86.31
2023-04-20T19:59:01.032Z,86.83
2023-04-20T20:01:27.954Z,87.20
2023-04-20T20:03:55.201Z,87.86
2023-04-20T20:06:22.593Z,88.32
2023-04-20T20:08:49.922Z,88.42
2023-04-20T20:11:16.686Z,88.97
2023-04-20T20:13:43.551Z,89.31
2023-04-20T20:16:10.484Z,89.54
2023-04-20T20:18:38.270Z,89.54
2023-04-20T20:21:05.213Z,89.68
2023-04-20T20:23:32.071Z,89.65
2023-04-20T20:25:58.858Z,89.86
2023-04-20T20:28:25.630Z,90.04
2023-04-20T20:30:52.573Z,90.38
2023-04-20T20:33:19.494Z,91.28
2023-04-20T20:35:46.382Z,91.72
2023-04-20T20:38:13.434Z,91.41
2023-04-20T20:40:40.293Z,91.88
2023-04-20T20:43:07.312Z,92.32
2023-04-20T20:45:34.209Z,92.93
2023-04-20T20:48:01.243Z,93.22
2023-04-20T20:50:28.190Z,93.49
2023-04-20T20:52:54.966Z,93.45
2023-04-20T20:55:22.166Z,93.59
2023-04-20T20:57:49.029Z,93.99
2023-04-20T21:00:16.139Z,94.77
2023-04-20T21:02:43.245Z,94.67
2023-04-20T21:05:10.990Z,95.17
2023-04-20T21:07:38.761Z,95.85
2023-04-20T21:10:06.451Z,95.22
2023-04-20T21:12:33.405Z,95.84
2023-04-20T21:15:00.560Z,95.95
2023-04-20T21:17:27.436Z,95.78
2023-04-20T21:19:54.292Z,95.68
2023-04-20T21:22:22.542Z,96.15
2023-04-20T21:24:49.544Z,96.10
2023-04-20T21:27:16.373Z,96.07
2023-04-20T21:29:43.235Z,96.19
2023-04-20T21:32:10.244Z,96.57
2023-04-20T21:34:37.064Z,96.56
2023-04-20T21:37:05.462Z,96.43
2023-04-20T21:39:32.468Z,97.22
2023-04-20T21:41:59.825Z,98.18
2023-04-20T21:44:26.993Z,99.63
2023-04-20T21:46:53.957Z,100.00
2023-04-20T21:49:21.213Z,100.00
2023-04-20T21:51:57.886Z,100.00
2023-04-20T21:54:24.770Z,100.00
2023-04-20T21:56:51.507Z,100.00
2023-04-20T21:59:19.840Z,100.00
2023-04-20T22:01:46.820Z,100.00
2023-04-20T22:04:16.625Z,100.00
2023-04-20T22:06:43.853Z,100.00
2023-04-20T22:09:10.871Z,100.00
2023-04-20T22:11:37.745Z,100.00
2023-04-20T22:14:04.778Z,100.00
2023-04-20T22:16:33.960Z,100.00
2023-04-20T22:19:01.400Z,100.00
2023-04-20T22:21:28.542Z,100.00
2023-04-20T22:23:55.456Z,100.00
2023-04-20T22:26:22.293Z,100.00
2023-04-20T22:28:49.347Z,100.00
2023-04-20T22:31:16.463Z,100.00
2023-04-20T22:33:43.386Z,100.00
2023-04-20T22:36:10.695Z,100.00
2023-04-20T22:38:37.974Z,100.00
2023-04-20T22:41:04.990Z,100.00
2023-04-20T22:43:31.797Z,100.00
2023-04-20T22:45:58.634Z,100.00
2023-04-20T22:48:25.456Z,100.00
2023-04-20T22:50:52.527Z,100.00
2023-04-20T22:53:19.472Z,100.00
2023-04-20T22:55:46.305Z,100.00
2023-04-20T22:58:13.198Z,100.00
2023-04-20T23:00:40.072Z,100.00
2023-04-20T23:03:06.979Z,100.00
2023-04-20T23:05:34.020Z,100.00
2023-04-20T23:08:00.822Z,100.00
2023-04-20T23:10:29.540Z,100.00
2023-04-20T23:12:56.629Z,100.00
2023-04-20T23:15:23.495Z,100.00
2023-04-20T23:17:50.976Z,100.00
2023-04-20T23:20:17.943Z,100.00
2023-04-20T23:22:44.799Z,100.00
2023-04-20T23:25:11.655Z,100.00
2023-04-20T23:27:38.622Z,100.00
2023-04-20T23:30:06.744Z,100.00
2023-04-20T23:32:33.749Z,100.00
2023-04-20T23:35:01.308Z,100.00
2023-04-20T23:37:28.157Z,100.00
2023-04-20T23:39:55.022Z,100.00
2023-04-20T23:42:21.843Z,100.00
2023-04-20T23:44:48.591Z,100.00
2023-04-20T23:47:15.750Z,100.00
2023-04-20T23:49:42.582Z,100.00
2023-04-20T23:52:09.514Z,100.00
2023-04-20T23:54:36.368Z,100.00
2023-04-20T23:57:03.266Z,100.00
2023-04-20T23:59:30.312Z,100.00
